MZ-0029 weather

Zambue Airport
Zambue, Tete Province, Mozambique

Public forecast

Using degrees Celsius for public forecast. Weather courtesy of forecast.io.

METAR (pilot weather report)

Report is more than 6 hours old.

Closest report is Mfuwe Airport, 130.5 nm (241.6 km) NNE. Retrieved 2016/10/12 08:00 UTC (3 years ago):

FLMF 120800Z 01008KT CAVOK 35/10 Q1017

TAF (pilot weather forecast)

Forecast is more than 6 hours old.

Closest forecast is Jeki Airport, 75.6 nm (140.0 km) WSW. Retrieved 2019/08/25 06:00 UTC (9 hours ago):

TAF FLJK 250400Z 2506/2612 10010KT 9000 NSC BECMG 2507/2511 09010KT 9000 SCT030 FM251400 13005KT CAVOK